Time;durP1;ratioP1;P1;durP2;ratioP2;P2;SDS_P1;SDS_P2;PMS_P1;PMS_P2;Temp;Humidity;BMP_temperature;BMP_pressure;BME280_temperature;BME280_humidity;BME280_pressure;Samples;Min_cycle;Max_cycle;Signal;HPM_P1;HPM_P2
2022/04/05 00:00:37;;;;;;;17.92;9.55;;;;;;;;;;4999501;28;20075;-56
2022/04/05 00:03:04;;;;;;;14.82;8.65;;;;;;;;;;4998397;28;20050;-59
2022/04/05 00:05:31;;;;;;;14.95;9.48;;;;;;;;;;4994034;28;20053;-59
2022/04/05 00:07:58;;;;;;;16.63;9.20;;;;;;;;;;4994118;28;20562;-60
2022/04/05 00:10:27;;;;;;;16.35;9.27;;;;;;;;;;4993856;28;20054;-58
2022/04/05 00:12:54;;;;;;;17.55;9.15;;;;;;;;;;4993867;28;20077;-60
2022/04/05 00:15:21;;;;;;;15.85;8.75;;;;;;;;;;4993586;28;20503;-59
2022/04/05 00:17:48;;;;;;;15.45;9.18;;;;;;;;;;4993603;28;20054;-58
2022/04/05 00:20:15;;;;;;;18.88;8.88;;;;;;;;;;4994046;28;20477;-60
2022/04/05 00:22:43;;;;;;;13.68;8.02;;;;;;;;;;4994219;28;20054;-59
2022/04/05 00:25:11;;;;;;;14.98;7.88;;;;;;;;;;4993903;28;20512;-59
2022/04/05 00:27:39;;;;;;;15.35;8.95;;;;;;;;;;4993552;28;20058;-61
2022/04/05 00:30:07;;;;;;;13.30;7.18;;;;;;;;;;4994321;28;20056;-57
2022/04/05 00:32:34;;;;;;;16.77;8.70;;;;;;;;;;4993611;28;20050;-60
2022/04/05 00:35:01;;;;;;;15.77;8.60;;;;;;;;;;4993667;28;20138;-59
2022/04/05 00:37:28;;;;;;;16.02;9.10;;;;;;;;;;4993596;28;20046;-60
2022/04/05 00:39:55;;;;;;;14.43;7.90;;;;;;;;;;4993229;28;20077;-60
2022/04/05 00:42:22;;;;;;;14.25;8.27;;;;;;;;;;4993369;28;20058;-59
2022/04/05 00:44:50;;;;;;;15.52;9.10;;;;;;;;;;4992771;28;20054;-60
2022/04/05 00:47:18;;;;;;;15.73;8.63;;;;;;;;;;4993131;28;20519;-59
2022/04/05 00:49:46;;;;;;;15.88;9.27;;;;;;;;;;4993102;28;20330;-60
2022/04/05 00:52:15;;;;;;;14.70;8.82;;;;;;;;;;4993722;28;20491;-61
2022/04/05 00:54:45;;;;;;;15.10;8.02;;;;;;;;;;4993740;28;20050;-61
2022/04/05 00:57:17;;;;;;;15.43;9.23;;;;;;;;;;4993730;28;20057;-60
2022/04/05 00:59:47;;;;;;;15.70;8.65;;;;;;;;;;4993791;28;20050;-59
2022/04/05 01:02:17;;;;;;;15.13;8.18;;;;;;;;;;4993366;28;20745;-57
2022/04/05 01:04:45;;;;;;;17.40;9.60;;;;;;;;;;4993081;28;20050;-59
2022/04/05 01:07:15;;;;;;;16.30;9.20;;;;;;;;;;4993544;28;20059;-60
2022/04/05 01:09:42;;;;;;;16.02;8.75;;;;;;;;;;4993390;28;20050;-58
2022/04/05 01:12:11;;;;;;;15.75;8.60;;;;;;;;;;5001440;23;20049;-63
2022/04/05 01:14:39;;;;;;;16.55;8.82;;;;;;;;;;4992157;28;20406;-64
2022/04/05 01:17:07;;;;;;;15.15;8.25;;;;;;;;;;4991926;28;20042;-63
2022/04/05 01:19:36;;;;;;;16.13;9.38;;;;;;;;;;4992562;28;20057;-63
2022/04/05 01:22:03;;;;;;;16.58;9.07;;;;;;;;;;4992175;28;20530;-62
2022/04/05 01:24:33;;;;;;;13.40;7.70;;;;;;;;;;4992218;28;20050;-63
2022/04/05 01:27:04;;;;;;;14.77;7.43;;;;;;;;;;4991881;28;20050;-64
2022/04/05 01:29:32;;;;;;;15.38;8.45;;;;;;;;;;4992631;28;20086;-64
2022/04/05 01:32:01;;;;;;;13.23;7.65;;;;;;;;;;4991935;28;20501;-62
2022/04/05 01:34:29;;;;;;;15.43;8.20;;;;;;;;;;4991978;28;20096;-63
2022/04/05 01:36:58;;;;;;;14.50;8.05;;;;;;;;;;4991838;28;20519;-65
2022/04/05 01:39:27;;;;;;;17.83;8.95;;;;;;;;;;4991991;28;20042;-65
2022/04/05 01:41:57;;;;;;;14.18;8.30;;;;;;;;;;4995109;28;20396;-62
2022/04/05 01:44:25;;;;;;;14.13;8.32;;;;;;;;;;4995763;28;20076;-64
2022/04/05 01:46:52;;;;;;;16.52;7.88;;;;;;;;;;4995587;28;20448;-63
2022/04/05 01:49:20;;;;;;;16.10;8.02;;;;;;;;;;4995182;28;20522;-64
2022/04/05 01:51:47;;;;;;;14.40;8.73;;;;;;;;;;4995144;28;20057;-65
2022/04/05 01:54:16;;;;;;;15.63;8.60;;;;;;;;;;4995162;28;20050;-64
2022/04/05 01:56:45;;;;;;;16.65;8.63;;;;;;;;;;4995017;28;20065;-64
2022/04/05 01:59:16;;;;;;;16.67;8.20;;;;;;;;;;4995131;28;20050;-64
2022/04/05 02:01:43;;;;;;;15.25;9.30;;;;;;;;;;4995053;28;20049;-63
2022/04/05 02:04:11;;;;;;;16.52;8.40;;;;;;;;;;4995499;28;20140;-64
2022/04/05 02:06:39;;;;;;;20.00;9.75;;;;;;;;;;4995031;28;20404;-64
2022/04/05 02:09:06;;;;;;;15.73;9.15;;;;;;;;;;4995064;28;20046;-63
2022/04/05 02:11:33;;;;;;;16.15;9.10;;;;;;;;;;4994802;28;20050;-63
2022/04/05 02:14:00;;;;;;;16.55;9.35;;;;;;;;;;4995077;28;20104;-63
2022/04/05 02:16:29;;;;;;;15.20;8.52;;;;;;;;;;4994595;28;20052;-63
2022/04/05 02:18:56;;;;;;;18.85;9.00;;;;;;;;;;4994679;28;20046;-64
2022/04/05 02:21:23;;;;;;;16.55;8.80;;;;;;;;;;4994772;28;20046;-63
2022/04/05 02:23:50;;;;;;;15.57;9.10;;;;;;;;;;4994855;28;20499;-64
2022/04/05 02:26:17;;;;;;;15.98;8.23;;;;;;;;;;4994521;28;20054;-63
2022/04/05 02:28:44;;;;;;;16.80;8.38;;;;;;;;;;4994530;28;20050;-63
2022/04/05 02:31:11;;;;;;;14.38;8.25;;;;;;;;;;4995127;28;20054;-64
2022/04/05 02:33:40;;;;;;;16.00;8.68;;;;;;;;;;4994625;28;20518;-64
2022/04/05 02:36:08;;;;;;;12.20;6.85;;;;;;;;;;4994883;28;20054;-61
2022/04/05 02:38:36;;;;;;;14.07;7.20;;;;;;;;;;4994296;28;20137;-63
2022/04/05 02:41:05;;;;;;;12.73;7.00;;;;;;;;;;4994872;28;20408;-65
2022/04/05 02:43:32;;;;;;;14.60;7.03;;;;;;;;;;4994421;28;20046;-63
2022/04/05 02:45:59;;;;;;;12.75;6.82;;;;;;;;;;4994398;28;20050;-65
2022/04/05 02:48:26;;;;;;;14.25;7.65;;;;;;;;;;4994218;28;20057;-64
2022/04/05 02:50:55;;;;;;;13.27;6.85;;;;;;;;;;4994318;28;20048;-64
2022/04/05 02:53:22;;;;;;;13.05;6.68;;;;;;;;;;4993099;28;20521;-63
2022/04/05 02:55:49;;;;;;;12.98;7.05;;;;;;;;;;4994318;28;20499;-64
2022/04/05 02:58:16;;;;;;;13.07;6.90;;;;;;;;;;4994075;28;20073;-63
2022/04/05 03:00:43;;;;;;;13.75;7.00;;;;;;;;;;4994196;28;20051;-62
2022/04/05 03:03:10;;;;;;;13.57;7.43;;;;;;;;;;4993983;28;20050;-64
2022/04/05 03:05:37;;;;;;;14.00;7.32;;;;;;;;;;4993724;28;20089;-63
2022/04/05 03:08:06;;;;;;;14.63;8.88;;;;;;;;;;4993913;28;20414;-64
2022/04/05 03:10:33;;;;;;;13.05;6.50;;;;;;;;;;4994029;28;20058;-63
2022/04/05 03:13:01;;;;;;;13.93;7.40;;;;;;;;;;4993920;28;20042;-63
2022/04/05 03:15:28;;;;;;;14.82;7.38;;;;;;;;;;4994159;28;20050;-64
2022/04/05 03:17:58;;;;;;;11.73;6.10;;;;;;;;;;4993669;28;20419;-62
2022/04/05 03:20:25;;;;;;;14.32;7.25;;;;;;;;;;4993583;28;20050;-63
2022/04/05 03:22:55;;;;;;;11.60;6.38;;;;;;;;;;4993702;28;20050;-62
2022/04/05 03:25:23;;;;;;;12.98;7.05;;;;;;;;;;4993485;28;20118;-64
2022/04/05 03:27:51;;;;;;;13.07;6.97;;;;;;;;;;4993543;28;20098;-64
2022/04/05 03:30:19;;;;;;;12.45;6.70;;;;;;;;;;4993600;28;20058;-63
2022/04/05 03:32:46;;;;;;;16.02;7.07;;;;;;;;;;4993444;28;20047;-63
2022/04/05 03:35:13;;;;;;;13.20;7.20;;;;;;;;;;4993531;28;20053;-64
2022/04/05 03:37:40;;;;;;;13.32;7.32;;;;;;;;;;4993399;28;20397;-65
2022/04/05 03:40:08;;;;;;;13.10;7.30;;;;;;;;;;4993165;28;20049;-64
2022/04/05 03:42:37;;;;;;;13.95;7.10;;;;;;;;;;4993365;28;20069;-64
2022/04/05 03:45:04;;;;;;;15.77;8.02;;;;;;;;;;4993038;28;20129;-63
2022/04/05 03:47:31;;;;;;;12.38;5.97;;;;;;;;;;4993074;28;20050;-64
2022/04/05 03:49:59;;;;;;;14.30;7.70;;;;;;;;;;4993204;28;20055;-63
2022/04/05 03:52:26;;;;;;;15.90;7.78;;;;;;;;;;4993258;28;20043;-63
2022/04/05 03:54:53;;;;;;;12.40;6.80;;;;;;;;;;4992887;28;20076;-63
2022/04/05 03:57:20;;;;;;;16.35;7.13;;;;;;;;;;4993237;28;20496;-64
2022/04/05 03:59:48;;;;;;;14.25;6.47;;;;;;;;;;4992815;28;20089;-63
2022/04/05 04:02:15;;;;;;;13.77;6.30;;;;;;;;;;4992992;28;20053;-63
2022/04/05 04:04:42;;;;;;;13.07;6.95;;;;;;;;;;4992748;28;20081;-65
2022/04/05 04:07:09;;;;;;;12.10;6.60;;;;;;;;;;4992774;28;20085;-62
2022/04/05 04:09:36;;;;;;;11.23;6.60;;;;;;;;;;4992743;28;20124;-63
2022/04/05 04:12:04;;;;;;;13.65;6.13;;;;;;;;;;4992960;28;20109;-62
2022/04/05 04:14:33;;;;;;;12.35;6.65;;;;;;;;;;4992581;28;20058;-63
2022/04/05 04:17:01;;;;;;;14.20;6.30;;;;;;;;;;4992957;28;20416;-63
2022/04/05 04:19:28;;;;;;;11.30;6.00;;;;;;;;;;4992556;28;20050;-63
2022/04/05 04:21:55;;;;;;;10.80;5.50;;;;;;;;;;4992841;28;20049;-63
2022/04/05 04:24:22;;;;;;;11.02;6.22;;;;;;;;;;4992678;28;20053;-64
2022/04/05 04:26:49;;;;;;;14.07;6.45;;;;;;;;;;4992650;28;20503;-65
2022/04/05 04:29:16;;;;;;;13.07;6.57;;;;;;;;;;4992713;28;20141;-63
2022/04/05 04:31:42;;;;;;;12.95;6.43;;;;;;;;;;4992637;28;20042;-64
2022/04/05 04:34:11;;;;;;;12.25;5.28;;;;;;;;;;4992620;28;20057;-63
2022/04/05 04:36:38;;;;;;;12.27;5.82;;;;;;;;;;4992611;28;20053;-63
2022/04/05 04:39:05;;;;;;;9.95;5.80;;;;;;;;;;4992526;28;20408;-64
2022/04/05 04:41:33;;;;;;;13.68;7.00;;;;;;;;;;4992441;28;20055;-65
2022/04/05 04:44:00;;;;;;;12.57;6.53;;;;;;;;;;4992693;28;20058;-63
2022/04/05 04:46:27;;;;;;;14.70;7.70;;;;;;;;;;4992636;28;20050;-64
2022/04/05 04:48:54;;;;;;;11.38;6.45;;;;;;;;;;4992639;28;20058;-63
2022/04/05 04:51:22;;;;;;;13.77;6.45;;;;;;;;;;4992708;28;20522;-64
2022/04/05 04:53:49;;;;;;;13.98;6.78;;;;;;;;;;4992620;28;20080;-64
2022/04/05 04:56:16;;;;;;;13.00;6.55;;;;;;;;;;4992301;28;20054;-64
2022/04/05 04:58:42;;;;;;;14.02;7.28;;;;;;;;;;4992155;28;20050;-63
2022/04/05 05:01:09;;;;;;;14.27;7.55;;;;;;;;;;4992519;28;20047;-63
2022/04/05 05:03:36;;;;;;;14.30;7.20;;;;;;;;;;4992459;28;20519;-63
2022/04/05 05:06:04;;;;;;;12.98;6.85;;;;;;;;;;4991914;28;20060;-63
2022/04/05 05:08:33;;;;;;;11.65;6.30;;;;;;;;;;4992434;28;20136;-64
2022/04/05 05:11:01;;;;;;;14.07;8.15;;;;;;;;;;4992277;28;20456;-65
2022/04/05 05:13:35;;;;;;;18.30;8.15;;;;;;;;;;4992262;28;20130;-65
2022/04/05 05:16:01;;;;;;;16.67;7.55;;;;;;;;;;4993994;28;20184;-63
2022/04/05 05:18:28;;;;;;;12.95;6.90;;;;;;;;;;4996057;28;20046;-63
2022/04/05 05:20:55;;;;;;;18.27;8.18;;;;;;;;;;4995890;28;20193;-64
2022/04/05 05:23:22;;;;;;;15.95;8.43;;;;;;;;;;4996434;28;20058;-65
2022/04/05 05:25:50;;;;;;;12.02;6.53;;;;;;;;;;4995990;28;20046;-66
2022/04/05 05:28:17;;;;;;;15.45;7.53;;;;;;;;;;4997108;28;20514;-66
2022/04/05 05:30:44;;;;;;;16.23;7.65;;;;;;;;;;4997436;28;20054;-63
2022/04/05 05:33:11;;;;;;;16.60;8.27;;;;;;;;;;4996188;28;20483;-66
2022/04/05 05:35:38;;;;;;;16.77;7.95;;;;;;;;;;4996155;28;20050;-64
2022/04/05 05:38:06;;;;;;;14.75;7.50;;;;;;;;;;4996282;28;20069;-67
2022/04/05 05:40:33;;;;;;;15.00;7.07;;;;;;;;;;4996108;28;20491;-66
2022/04/05 05:43:03;;;;;;;15.07;7.35;;;;;;;;;;4996108;28;20211;-64
2022/04/05 05:45:32;;;;;;;16.43;7.60;;;;;;;;;;4996345;28;20042;-65
2022/04/05 05:48:02;;;;;;;17.50;8.10;;;;;;;;;;4995932;28;20047;-64
2022/04/05 05:50:30;;;;;;;18.02;8.40;;;;;;;;;;4995458;28;20058;-65
2022/04/05 05:52:58;;;;;;;14.85;7.65;;;;;;;;;;4995611;28;20073;-63
2022/04/05 05:55:26;;;;;;;14.57;7.53;;;;;;;;;;4995694;28;20411;-64
2022/04/05 05:57:53;;;;;;;16.13;7.60;;;;;;;;;;4995802;28;20478;-64
2022/04/05 06:00:22;;;;;;;18.23;9.10;;;;;;;;;;4995475;28;20054;-65
2022/04/05 06:02:52;;;;;;;16.88;8.93;;;;;;;;;;4996234;28;20077;-64
2022/04/05 06:05:19;;;;;;;16.63;8.52;;;;;;;;;;4995475;28;20050;-64
2022/04/05 06:07:46;;;;;;;14.73;7.43;;;;;;;;;;4995313;28;20050;-64
2022/04/05 06:10:14;;;;;;;14.95;7.95;;;;;;;;;;4995122;28;20054;-63
2022/04/05 06:12:42;;;;;;;14.02;7.45;;;;;;;;;;4995306;28;20043;-65
2022/04/05 06:15:11;;;;;;;14.77;7.78;;;;;;;;;;4995113;28;20093;-64
2022/04/05 06:17:41;;;;;;;16.63;8.63;;;;;;;;;;4995577;28;20050;-64
2022/04/05 06:20:10;;;;;;;18.77;9.10;;;;;;;;;;4995442;28;20418;-64
2022/04/05 06:22:44;;;;;;;18.08;8.27;;;;;;;;;;4995271;28;20346;-64
2022/04/05 06:25:13;;;;;;;17.45;8.52;;;;;;;;;;4994940;28;20522;-63
2022/04/05 06:27:39;;;;;;;21.75;9.80;;;;;;;;;;4994936;28;20046;-65
2022/04/05 06:30:09;;;;;;;17.75;9.10;;;;;;;;;;4995020;28;20050;-65
2022/04/05 06:32:36;;;;;;;18.98;9.52;;;;;;;;;;4994665;28;20046;-64
2022/04/05 06:35:07;;;;;;;17.23;8.63;;;;;;;;;;4994885;28;20050;-65
2022/04/05 06:37:35;;;;;;;18.88;8.55;;;;;;;;;;4995182;28;20050;-64
2022/04/05 06:40:03;;;;;;;17.98;8.18;;;;;;;;;;4994928;28;20407;-64
2022/04/05 06:42:30;;;;;;;17.58;8.15;;;;;;;;;;4994463;28;20050;-63
2022/04/05 06:44:57;;;;;;;20.85;10.88;;;;;;;;;;4994934;28;20511;-66
2022/04/05 06:47:24;;;;;;;19.27;9.85;;;;;;;;;;4995061;28;20049;-64
2022/04/05 06:49:51;;;;;;;23.65;10.93;;;;;;;;;;4995365;28;20494;-62
2022/04/05 06:52:19;;;;;;;19.67;9.73;;;;;;;;;;4995300;28;20133;-65
2022/04/05 06:54:47;;;;;;;19.17;8.32;;;;;;;;;;4994791;28;20050;-63
2022/04/05 06:57:13;;;;;;;18.55;8.88;;;;;;;;;;4994747;28;20046;-64
2022/04/05 06:59:41;;;;;;;20.80;9.27;;;;;;;;;;4994965;28;20043;-63
2022/04/05 07:02:09;;;;;;;18.67;9.98;;;;;;;;;;4995006;28;20050;-64
2022/04/05 07:04:36;;;;;;;21.45;9.98;;;;;;;;;;4994622;28;20105;-65
2022/04/05 07:07:03;;;;;;;19.48;8.80;;;;;;;;;;4994496;28;20050;-64
2022/04/05 07:09:31;;;;;;;22.75;10.65;;;;;;;;;;4994524;28;20046;-64
2022/04/05 07:11:58;;;;;;;22.50;9.35;;;;;;;;;;4994333;28;20046;-64
2022/04/05 07:14:25;;;;;;;17.48;9.35;;;;;;;;;;4994590;28;20524;-65
2022/04/05 07:16:52;;;;;;;19.67;8.68;;;;;;;;;;5015410;23;20405;-81
2022/04/05 07:19:19;;;;;;;16.75;8.55;;;;;;;;;;5001155;28;20101;-82
2022/04/05 07:21:46;;;;;;;18.48;8.70;;;;;;;;;;5001289;28;20050;-80
2022/04/05 07:24:13;;;;;;;18.60;9.13;;;;;;;;;;5002281;28;20081;-81
2022/04/05 07:26:41;;;;;;;20.92;9.27;;;;;;;;;;5002586;28;20050;-81
2022/04/05 07:29:07;;;;;;;19.50;9.00;;;;;;;;;;5007378;28;20101;-81
2022/04/05 07:31:34;;;;;;;21.75;9.20;;;;;;;;;;5012056;28;20073;-80
2022/04/05 07:34:01;;;;;;;23.00;10.50;;;;;;;;;;5010053;28;20058;-78
2022/04/05 07:36:28;;;;;;;18.48;8.63;;;;;;;;;;5007124;28;20046;-78
2022/04/05 07:38:55;;;;;;;21.35;9.75;;;;;;;;;;5004313;28;20047;-80
2022/04/05 07:41:21;;;;;;;20.35;9.15;;;;;;;;;;5004936;28;20082;-80
2022/04/05 07:43:50;;;;;;;18.50;8.73;;;;;;;;;;5005112;28;20046;-79
2022/04/05 07:46:17;;;;;;;18.98;9.27;;;;;;;;;;5005137;28;20046;-80
2022/04/05 07:48:46;;;;;;;19.02;8.27;;;;;;;;;;5005322;28;20046;-81
2022/04/05 07:51:13;;;;;;;18.40;8.82;;;;;;;;;;5004707;28;20050;-79
2022/04/05 07:53:40;;;;;;;16.80;7.72;;;;;;;;;;5004543;28;20046;-80
2022/04/05 07:56:07;;;;;;;19.60;8.18;;;;;;;;;;5004032;28;20050;-80
2022/04/05 07:58:34;;;;;;;20.60;8.90;;;;;;;;;;5004532;28;20050;-80
2022/04/05 08:01:02;;;;;;;17.00;8.27;;;;;;;;;;5004097;28;20054;-78
2022/04/05 08:03:29;;;;;;;17.70;9.15;;;;;;;;;;5003329;28;20113;-79
2022/04/05 08:05:55;;;;;;;17.58;8.75;;;;;;;;;;5003178;28;20560;-78
2022/04/05 08:08:22;;;;;;;16.27;7.38;;;;;;;;;;5003925;28;20082;-79
2022/04/05 08:10:49;;;;;;;17.52;7.82;;;;;;;;;;5003317;28;20050;-79
2022/04/05 08:13:16;;;;;;;18.67;7.43;;;;;;;;;;5003537;28;20539;-79
2022/04/05 08:15:43;;;;;;;17.95;8.10;;;;;;;;;;5004035;28;20054;-79
2022/04/05 08:18:11;;;;;;;18.60;8.05;;;;;;;;;;5004582;28;20046;-78
2022/04/05 08:20:39;;;;;;;21.65;9.90;;;;;;;;;;5006953;28;20073;-78
2022/04/05 08:23:07;;;;;;;16.83;7.80;;;;;;;;;;5012060;28;20049;-78
2022/04/05 08:25:33;;;;;;;15.55;7.45;;;;;;;;;;5007174;28;20053;-79
2022/04/05 08:28:00;;;;;;;19.17;8.23;;;;;;;;;;5004559;28;20069;-78
2022/04/05 08:30:27;;;;;;;18.88;8.15;;;;;;;;;;5005724;28;20551;-82
2022/04/05 08:32:54;;;;;;;16.02;8.52;;;;;;;;;;5008090;28;20050;-78
2022/04/05 08:35:23;;;;;;;17.40;7.70;;;;;;;;;;5007031;28;20109;-79
2022/04/05 08:37:54;;;;;;;16.02;7.13;;;;;;;;;;5006002;28;20047;-79
2022/04/05 08:40:23;;;;;;;17.92;7.95;;;;;;;;;;5006019;28;20042;-79
2022/04/05 08:42:52;;;;;;;16.40;7.85;;;;;;;;;;5005900;28;20047;-79
2022/04/05 08:45:21;;;;;;;15.20;7.15;;;;;;;;;;5004559;28;20070;-79
2022/04/05 08:47:50;;;;;;;16.45;7.65;;;;;;;;;;5003388;28;20086;-79
2022/04/05 08:50:19;;;;;;;19.13;8.02;;;;;;;;;;5003012;28;20046;-79
2022/04/05 08:52:47;;;;;;;17.77;6.78;;;;;;;;;;5006472;28;20047;-78
2022/04/05 08:55:15;;;;;;;19.65;7.57;;;;;;;;;;5003434;28;20047;-79
2022/04/05 08:57:43;;;;;;;13.05;5.70;;;;;;;;;;5007211;28;20073;-80
2022/04/05 09:00:15;;;;;;;14.95;6.28;;;;;;;;;;5008203;28;20050;-79
2022/04/05 09:03:05;;;;;;;14.68;7.35;;;;;;;;;;5006299;28;20497;-79
2022/04/05 09:05:34;;;;;;;18.00;7.47;;;;;;;;;;5006818;28;20114;-80
2022/04/05 09:08:21;;;;;;;19.08;6.78;;;;;;;;;;5006673;28;20419;-79
2022/04/05 09:10:49;;;;;;;14.50;7.03;;;;;;;;;;5007082;28;20054;-78
2022/04/05 09:13:19;;;;;;;17.73;7.53;;;;;;;;;;5006549;28;20101;-79
2022/04/05 09:25:59;;;;;;;14.52;6.30;;;;;;;;;;5004457;28;20061;-78
2022/04/05 09:28:30;;;;;;;15.27;6.45;;;;;;;;;;5003746;28;20407;-79
2022/04/05 09:31:02;;;;;;;18.25;6.70;;;;;;;;;;5004397;28;20492;-80
2022/04/05 09:33:30;;;;;;;17.90;6.78;;;;;;;;;;5003598;28;20073;-79
2022/04/05 09:36:08;;;;;;;15.68;6.45;;;;;;;;;;5004470;28;20110;-80
2022/04/05 09:38:35;;;;;;;14.77;6.65;;;;;;;;;;5004739;28;20062;-80
2022/04/05 09:41:22;;;;;;;15.70;5.80;;;;;;;;;;5004200;28;20050;-79
2022/04/05 09:43:54;;;;;;;14.63;6.35;;;;;;;;;;5004482;28;20101;-80
2022/04/05 09:46:21;;;;;;;17.33;6.95;;;;;;;;;;5005601;28;20061;-80
2022/04/05 09:48:48;;;;;;;15.65;6.80;;;;;;;;;;5006716;28;20073;-80
2022/04/05 09:51:17;;;;;;;17.00;7.13;;;;;;;;;;5005565;28;20057;-80
2022/04/05 09:53:50;;;;;;;15.23;7.00;;;;;;;;;;5005050;28;20050;-81
2022/04/05 09:56:19;;;;;;;16.42;6.63;;;;;;;;;;5006857;28;20078;-79
2022/04/05 09:58:49;;;;;;;15.40;6.47;;;;;;;;;;5006548;28;20057;-80
2022/04/05 10:01:17;;;;;;;17.35;7.78;;;;;;;;;;5007015;28;20133;-80
2022/04/05 10:03:44;;;;;;;16.17;6.68;;;;;;;;;;5006714;28;20058;-80
2022/04/05 10:06:11;;;;;;;19.30;8.50;;;;;;;;;;5007023;28;20046;-79
2022/04/05 10:08:39;;;;;;;17.67;6.50;;;;;;;;;;5006344;28;20042;-79
2022/04/05 10:11:06;;;;;;;16.83;6.75;;;;;;;;;;5006506;28;20077;-78
2022/04/05 10:13:33;;;;;;;18.48;7.07;;;;;;;;;;5005117;28;20134;-78
2022/04/05 10:16:02;;;;;;;18.63;7.22;;;;;;;;;;5005248;28;20046;-78
2022/04/05 10:18:38;;;;;;;21.35;7.43;;;;;;;;;;5006386;28;20046;-81
2022/04/05 10:21:05;;;;;;;18.75;8.18;;;;;;;;;;5004868;28;20100;-80
2022/04/05 10:23:34;;;;;;;18.58;7.88;;;;;;;;;;5005648;28;20073;-80
2022/04/05 10:26:01;;;;;;;18.83;7.70;;;;;;;;;;5005393;28;20050;-80
2022/04/05 10:28:31;;;;;;;18.10;7.95;;;;;;;;;;5004273;28;20050;-81
2022/04/05 10:31:04;;;;;;;18.90;7.93;;;;;;;;;;5004921;28;20050;-81
2022/04/05 10:33:39;;;;;;;21.00;7.75;;;;;;;;;;5003746;28;20074;-81
2022/04/05 10:36:08;;;;;;;17.80;7.55;;;;;;;;;;5003864;28;20047;-81
2022/04/05 10:38:36;;;;;;;18.13;7.93;;;;;;;;;;5004429;28;20050;-81
2022/04/05 10:41:13;;;;;;;17.45;7.60;;;;;;;;;;5004820;28;20046;-79
2022/04/05 10:43:40;;;;;;;19.83;9.02;;;;;;;;;;5004609;28;20054;-80
2022/04/05 10:46:10;;;;;;;18.80;8.13;;;;;;;;;;5002921;28;20096;-79
2022/04/05 10:48:38;;;;;;;19.35;8.32;;;;;;;;;;5004217;28;20050;-79
2022/04/05 10:51:12;;;;;;;23.88;9.20;;;;;;;;;;5003548;28;20588;-80
2022/04/05 10:53:41;;;;;;;20.20;8.30;;;;;;;;;;4999386;28;20340;-80
2022/04/05 10:56:14;;;;;;;25.08;9.40;;;;;;;;;;4996921;28;20049;-80
2022/04/05 10:59:16;;;;;;;22.48;9.48;;;;;;;;;;4997543;28;20050;-79
2022/04/05 11:01:45;;;;;;;23.10;9.85;;;;;;;;;;4999130;28;20089;-80
2022/04/05 11:04:30;;;;;;;21.85;9.15;;;;;;;;;;5000038;28;20046;-79
2022/04/05 11:07:13;;;;;;;28.70;10.05;;;;;;;;;;4999288;28;20046;-79
2022/04/05 11:09:48;;;;;;;25.33;11.32;;;;;;;;;;5001705;28;20050;-80
2022/04/05 11:12:19;;;;;;;26.38;9.75;;;;;;;;;;5004920;28;20050;-78
2022/04/05 11:14:50;;;;;;;21.52;8.85;;;;;;;;;;5015383;28;20081;-78
2022/04/05 11:17:19;;;;;;;21.98;9.57;;;;;;;;;;5017465;28;20053;-80
2022/04/05 11:19:48;;;;;;;27.45;9.60;;;;;;;;;;5018581;28;20061;-79
2022/04/05 11:22:30;;;;;;;24.15;9.35;;;;;;;;;;5018385;28;20080;-80
2022/04/05 11:25:00;;;;;;;22.30;8.70;;;;;;;;;;5018396;28;20030;-79
2022/04/05 11:27:29;;;;;;;20.67;7.93;;;;;;;;;;5019149;28;20062;-80
2022/04/05 11:30:39;;;;;;;21.98;9.35;;;;;;;;;;5019073;28;20041;-80
2022/04/05 11:33:35;;;;;;;17.20;8.38;;;;;;;;;;4978774;28;20070;-79
2022/04/05 11:36:04;;;;;;;20.75;8.20;;;;;;;;;;5018799;28;20037;-79
2022/04/05 11:38:33;;;;;;;24.95;10.13;;;;;;;;;;5018333;28;20050;-79
2022/04/05 11:41:03;;;;;;;21.38;8.77;;;;;;;;;;5009736;28;20053;-80
2022/04/05 11:43:32;;;;;;;16.67;8.25;;;;;;;;;;5008057;28;20050;-80
2022/04/05 11:46:03;;;;;;;18.42;8.05;;;;;;;;;;5009586;28;20046;-80
2022/04/05 11:48:32;;;;;;;19.25;7.28;;;;;;;;;;5007833;28;20052;-78
2022/04/05 11:51:00;;;;;;;19.50;7.72;;;;;;;;;;5009068;28;20054;-79
2022/04/05 11:53:28;;;;;;;18.85;8.35;;;;;;;;;;5009944;28;20058;-80
2022/04/05 11:56:17;;;;;;;18.80;7.70;;;;;;;;;;5004365;28;20054;-79
2022/04/05 11:58:47;;;;;;;16.67;7.57;;;;;;;;;;5006377;28;20050;-78
2022/04/05 12:01:16;;;;;;;15.65;7.63;;;;;;;;;;5005426;28;20073;-79
2022/04/05 12:03:47;;;;;;;14.80;6.95;;;;;;;;;;5004643;28;20535;-79
2022/04/05 12:06:17;;;;;;;17.15;7.43;;;;;;;;;;5005227;28;20054;-79
2022/04/05 12:08:45;;;;;;;16.58;7.15;;;;;;;;;;5002712;28;20108;-79
2022/04/05 12:11:12;;;;;;;15.02;6.75;;;;;;;;;;5003562;28;20081;-79
2022/04/05 12:13:39;;;;;;;12.85;6.10;;;;;;;;;;5008753;28;20055;-78
2022/04/05 12:16:07;;;;;;;15.77;7.28;;;;;;;;;;5011270;28;20042;-79
2022/04/05 12:18:34;;;;;;;14.98;6.90;;;;;;;;;;5010579;28;20050;-79
2022/04/05 12:21:04;;;;;;;14.25;5.97;;;;;;;;;;5010468;28;20456;-79
2022/04/05 12:23:33;;;;;;;12.85;6.28;;;;;;;;;;5008981;28;20051;-79
2022/04/05 12:26:20;;;;;;;12.38;6.32;;;;;;;;;;5008815;28;20093;-79
2022/04/05 12:28:50;;;;;;;14.88;5.70;;;;;;;;;;5009232;28;20050;-79
2022/04/05 12:31:19;;;;;;;12.75;5.22;;;;;;;;;;5009045;28;20085;-79
2022/04/05 12:33:58;;;;;;;12.40;5.80;;;;;;;;;;5008595;28;20497;-79
2022/04/05 12:36:33;;;;;;;13.85;6.22;;;;;;;;;;5004795;28;20555;-78
2022/04/05 12:39:00;;;;;;;13.13;5.57;;;;;;;;;;5003686;28;20042;-80
2022/04/05 12:41:27;;;;;;;12.07;5.28;;;;;;;;;;5003251;28;20105;-79
2022/04/05 12:44:07;;;;;;;10.63;5.10;;;;;;;;;;5003162;28;20159;-79
2022/04/05 12:46:45;;;;;;;;;;;;;;;;;;5003718;28;20097;-79
2022/04/05 12:49:17;;;;;;;12.07;5.07;;;;;;;;;;5001580;28;19945;-78
2022/04/05 12:51:46;;;;;;;11.55;5.43;;;;;;;;;;5002976;28;20050;-79
2022/04/05 12:54:29;;;;;;;11.10;5.60;;;;;;;;;;5002156;28;20073;-79
2022/04/05 12:57:15;;;;;;;11.05;5.30;;;;;;;;;;5001279;28;20054;-79
2022/04/05 12:59:41;;;;;;;11.00;5.60;;;;;;;;;;5002347;28;20050;-79
2022/04/05 13:02:16;;;;;;;11.32;5.07;;;;;;;;;;5002937;28;20050;-79
2022/04/05 13:04:43;;;;;;;11.68;5.43;;;;;;;;;;5002831;28;20079;-79
2022/04/05 13:07:11;;;;;;;11.23;5.50;;;;;;;;;;5003194;28;20054;-80
2022/04/05 13:09:38;;;;;;;12.05;6.35;;;;;;;;;;5003144;28;20050;-80
2022/04/05 13:12:10;;;;;;;11.05;5.38;;;;;;;;;;5002541;28;20508;-79
2022/04/05 13:14:38;;;;;;;12.25;5.45;;;;;;;;;;5004235;28;20074;-79
2022/04/05 13:17:06;;;;;;;11.85;5.22;;;;;;;;;;5020617;23;20053;-67
2022/04/05 13:19:33;;;;;;;12.20;5.95;;;;;;;;;;4992542;28;20058;-67
2022/04/05 13:22:00;;;;;;;10.52;5.57;;;;;;;;;;4992424;28;20500;-67
2022/04/05 13:24:40;;;;;;;13.07;5.50;;;;;;;;;;4992354;28;20388;-67
2022/04/05 13:27:07;;;;;;;11.25;5.18;;;;;;;;;;4992323;28;20051;-68
2022/04/05 13:29:35;;;;;;;11.40;5.72;;;;;;;;;;4992597;28;20106;-67
2022/04/05 13:32:04;;;;;;;11.30;5.68;;;;;;;;;;4992784;28;20046;-67
2022/04/05 13:34:34;;;;;;;9.57;5.20;;;;;;;;;;4993416;28;20101;-67
2022/04/05 13:37:02;;;;;;;11.70;5.35;;;;;;;;;;4995329;28;20054;-67
2022/04/05 13:39:33;;;;;;;9.95;5.00;;;;;;;;;;4995656;28;20089;-67
2022/04/05 13:42:01;;;;;;;12.90;5.25;;;;;;;;;;4995640;28;20049;-67
2022/04/05 13:44:28;;;;;;;11.13;5.28;;;;;;;;;;4995715;28;20057;-67
2022/04/05 13:46:55;;;;;;;12.48;5.97;;;;;;;;;;4998101;28;20045;-67
2022/04/05 13:49:23;;;;;;;12.35;5.80;;;;;;;;;;5013109;28;20129;-67
2022/04/05 13:51:51;;;;;;;11.02;5.53;;;;;;;;;;5013544;28;20065;-67
2022/04/05 13:54:18;;;;;;;9.13;5.03;;;;;;;;;;5013266;28;20049;-67
2022/04/05 13:56:46;;;;;;;12.75;4.80;;;;;;;;;;5013240;28;20054;-67
2022/04/05 13:59:14;;;;;;;10.75;5.38;;;;;;;;;;5012930;28;20093;-67
2022/04/05 14:01:40;;;;;;;10.88;5.13;;;;;;;;;;5013224;28;20522;-67
2022/04/05 14:04:08;;;;;;;8.82;5.10;;;;;;;;;;5012851;28;20061;-67
2022/04/05 14:06:36;;;;;;;10.98;4.65;;;;;;;;;;5013295;28;20050;-67
2022/04/05 14:09:03;;;;;;;9.50;5.45;;;;;;;;;;5013114;28;20065;-67
2022/04/05 14:11:30;;;;;;;9.85;4.78;;;;;;;;;;5014392;28;20057;-68
2022/04/05 14:14:00;;;;;;;10.30;4.78;;;;;;;;;;5013415;28;20042;-67
2022/04/05 14:16:28;;;;;;;9.13;5.28;;;;;;;;;;5014236;28;20050;-66
2022/04/05 14:18:55;;;;;;;9.77;4.63;;;;;;;;;;5012509;28;20486;-67
2022/04/05 14:21:25;;;;;;;8.85;4.90;;;;;;;;;;5013038;28;20056;-67
2022/04/05 14:23:52;;;;;;;8.23;4.55;;;;;;;;;;5012647;28;20133;-67
2022/04/05 14:26:19;;;;;;;8.82;4.20;;;;;;;;;;5012996;28;20060;-67
2022/04/05 14:28:46;;;;;;;10.85;5.90;;;;;;;;;;5012337;28;20407;-67
2022/04/05 14:31:15;;;;;;;8.60;4.13;;;;;;;;;;5012341;28;20064;-67
2022/04/05 14:33:42;;;;;;;9.93;4.90;;;;;;;;;;5013021;28;20077;-68
2022/04/05 14:36:09;;;;;;;9.48;4.85;;;;;;;;;;5013038;28;20125;-68
2022/04/05 14:38:37;;;;;;;14.07;6.82;;;;;;;;;;5012702;28;20054;-67
2022/04/05 14:41:04;;;;;;;11.45;5.85;;;;;;;;;;5012168;28;20053;-67
2022/04/05 14:43:31;;;;;;;10.77;4.25;;;;;;;;;;5012173;28;20050;-67
2022/04/05 14:45:59;;;;;;;10.02;4.30;;;;;;;;;;4998333;28;20117;-66
2022/04/05 14:48:27;;;;;;;8.50;4.43;;;;;;;;;;4992731;28;20519;-67
2022/04/05 14:50:55;;;;;;;8.93;4.65;;;;;;;;;;4992539;28;20096;-67